Terminal Aerodrome Forecast
Issued by NWS

Home | Current Version | Previous Version | Graphics & Text | Print | Product List | Glossary On
Versions: 1 2 3 4 5 6 7 8 9 10 11 12 13 14 15 16
000
FTUS43 KOAX 280731 AAA
TAFCDR
TAF AMD
KCDR 280731Z 2808/0106 27004KT 1/4SM FZFG OVC001
     FM281000 25007KT 1SM BR SCT001 BKN070
     FM281300 26008KT P6SM SCT200
     FM281700 29010G20KT P6SM SCT250=

USA.gov is the U.S. government's official web portal to all federal, state and local government web resources and services.